createdAt,value
2017-05-31T00:00:16.222Z,1011.76
2017-05-31T00:01:16.211Z,1011.76
2017-05-31T00:02:16.191Z,1011.78
2017-05-31T00:03:16.176Z,1011.78
2017-05-31T00:04:16.162Z,1011.81
2017-05-31T00:05:16.150Z,1011.79
2017-05-31T00:06:16.132Z,1011.83
2017-05-31T00:07:16.123Z,1011.82
2017-05-31T00:08:16.105Z,1011.84
2017-05-31T00:09:16.091Z,1011.81
2017-05-31T00:10:16.072Z,1011.86
2017-05-31T00:11:16.064Z,1011.84
2017-05-31T00:12:16.054Z,1011.84
2017-05-31T00:13:16.030Z,1011.85
2017-05-31T00:14:16.021Z,1011.84
2017-05-31T00:15:16.006Z,1011.86
2017-05-31T00:16:15.987Z,1011.86
2017-05-31T00:17:15.971Z,1011.9
2017-05-31T00:18:15.961Z,1011.85
2017-05-31T00:19:15.941Z,1011.85
2017-05-31T00:20:15.927Z,1011.86
2017-05-31T00:21:15.910Z,1011.82
2017-05-31T00:22:15.902Z,1011.85
2017-05-31T00:23:15.882Z,1011.85
2017-05-31T00:24:15.873Z,1011.87
2017-05-31T00:25:15.861Z,1011.88
2017-05-31T00:26:15.842Z,1011.91
2017-05-31T00:27:15.831Z,1011.88
2017-05-31T00:28:15.813Z,1011.89
2017-05-31T00:29:15.801Z,1011.95
2017-05-31T00:30:15.782Z,1011.94
2017-05-31T00:31:15.781Z,1011.97
2017-05-31T00:32:15.754Z,1011.96
2017-05-31T00:33:15.741Z,1011.93
2017-05-31T00:34:15.722Z,1011.97
2017-05-31T00:35:15.711Z,1011.96
2017-05-31T00:36:15.692Z,1012.03
2017-05-31T00:37:15.679Z,1012.01
2017-05-31T00:38:15.663Z,1011.98
2017-05-31T00:39:15.653Z,1011.97
2017-05-31T00:40:15.632Z,1012.01
2017-05-31T00:41:15.631Z,1011.98
2017-05-31T00:42:15.602Z,1012.01
2017-05-31T00:43:15.589Z,1012.01
2017-05-31T00:44:15.570Z,1012.02
2017-05-31T00:45:15.562Z,1012.02
2017-05-31T00:46:15.544Z,1012.01
2017-05-31T00:47:15.531Z,1012.01
2017-05-31T00:48:15.520Z,1012.02
2017-05-31T00:49:15.500Z,1012
2017-05-31T00:50:15.491Z,1012.03
2017-05-31T00:51:15.476Z,1012.04
2017-05-31T00:52:15.462Z,1012.04
2017-05-31T00:53:15.441Z,1012.02
2017-05-31T00:54:15.422Z,1012.05
2017-05-31T00:55:15.413Z,1012.08
2017-05-31T00:56:15.402Z,1012.05
2017-05-31T00:57:15.383Z,1012.06
2017-05-31T00:58:15.362Z,1012.04
2017-05-31T00:59:15.349Z,1012.07
2017-05-31T01:00:15.340Z,1012.07
2017-05-31T01:01:15.317Z,1012.07
2017-05-31T01:02:15.305Z,1012.04
2017-05-31T01:03:15.287Z,1012.1
2017-05-31T01:04:15.280Z,1012.09
2017-05-31T01:05:15.261Z,1012.05
2017-05-31T01:06:15.243Z,1012.05
2017-05-31T01:07:15.226Z,1012.09
2017-05-31T01:08:15.213Z,1012.09
2017-05-31T01:09:15.198Z,1012.07
2017-05-31T01:10:15.192Z,1012.1
2017-05-31T01:11:15.171Z,1012.06
2017-05-31T01:12:15.163Z,1012.1
2017-05-31T01:13:15.142Z,1012.09
2017-05-31T01:14:15.121Z,1012.12
2017-05-31T01:15:15.106Z,1012.13
2017-05-31T01:16:15.091Z,1012.16
2017-05-31T01:17:15.080Z,1012.15
2017-05-31T01:18:15.061Z,1012.15
2017-05-31T01:19:15.047Z,1012.16
2017-05-31T01:20:15.030Z,1012.15
2017-05-31T01:21:15.031Z,1012.13
2017-05-31T01:22:15.001Z,1012.18
2017-05-31T01:23:14.988Z,1012.12
2017-05-31T01:24:14.970Z,1012.13
2017-05-31T01:25:14.961Z,1012.14
2017-05-31T01:26:14.941Z,1012.12
2017-05-31T01:27:14.930Z,1012.09
2017-05-31T01:28:14.912Z,1012.17
2017-05-31T01:29:14.901Z,1012.15
2017-05-31T01:30:14.882Z,1012.14
2017-05-31T01:31:14.868Z,1012.22
2017-05-31T01:32:14.848Z,1012.23
2017-05-31T01:33:14.838Z,1012.23
2017-05-31T01:34:14.821Z,1012.24
2017-05-31T01:35:14.807Z,1012.19
2017-05-31T01:36:14.789Z,1012.21
2017-05-31T01:37:14.783Z,1012.18
2017-05-31T01:38:14.759Z,1012.22
2017-05-31T01:39:14.745Z,1012.24
2017-05-31T01:40:14.727Z,1012.22
2017-05-31T01:41:14.722Z,1012.23
2017-05-31T01:42:14.699Z,1012.24
2017-05-31T01:43:14.683Z,1012.25
2017-05-31T01:44:14.673Z,1012.26
2017-05-31T01:45:14.654Z,1012.28
2017-05-31T01:46:14.636Z,1012.31
2017-05-31T01:47:14.624Z,1012.27
2017-05-31T01:48:14.610Z,1012.33
2017-05-31T01:49:14.593Z,1012.33
2017-05-31T01:50:14.577Z,1012.33
2017-05-31T01:51:14.562Z,1012.33
2017-05-31T01:52:14.551Z,1012.36
2017-05-31T01:53:14.538Z,1012.37
2017-05-31T01:54:14.517Z,1012.34
2017-05-31T01:55:14.504Z,1012.33
2017-05-31T01:56:14.483Z,1012.33
2017-05-31T01:57:14.473Z,1012.32
2017-05-31T01:58:14.452Z,1012.35
2017-05-31T01:59:14.439Z,1012.37
2017-05-31T02:00:14.422Z,1012.36
2017-05-31T02:01:14.407Z,1012.35
2017-05-31T02:02:14.393Z,1012.38
2017-05-31T02:03:14.376Z,1012.39
2017-05-31T02:04:14.362Z,1012.4
2017-05-31T02:05:14.349Z,1012.35
2017-05-31T02:06:14.331Z,1012.36
2017-05-31T02:07:14.316Z,1012.37
2017-05-31T02:08:14.302Z,1012.34
2017-05-31T02:09:14.285Z,1012.37
2017-05-31T02:10:14.269Z,1012.34
2017-05-31T02:11:14.251Z,1012.34
2017-05-31T02:12:14.235Z,1012.35
2017-05-31T02:13:14.223Z,1012.36
2017-05-31T02:14:14.210Z,1012.34
2017-05-31T02:15:14.192Z,1012.31
2017-05-31T02:16:14.178Z,1012.31
2017-05-31T02:17:14.160Z,1012.3
2017-05-31T02:18:14.142Z,1012.31
2017-05-31T02:19:14.130Z,1012.29
2017-05-31T02:20:14.112Z,1012.29
2017-05-31T02:21:14.097Z,1012.3
2017-05-31T02:22:14.082Z,1012.32
2017-05-31T02:23:18.311Z,1012.3
2017-05-31T02:24:14.052Z,1012.29
2017-05-31T02:25:14.035Z,1012.31
2017-05-31T02:26:14.023Z,1012.29
2017-05-31T02:27:14.003Z,1012.32
2017-05-31T02:28:13.993Z,1012.31
2017-05-31T02:29:13.972Z,1012.34
2017-05-31T02:30:13.960Z,1012.35
2017-05-31T02:31:13.943Z,1012.36
2017-05-31T02:32:13.932Z,1012.33
2017-05-31T02:33:13.909Z,1012.34
2017-05-31T02:34:13.894Z,1012.32
2017-05-31T02:35:13.885Z,1012.33
2017-05-31T02:36:13.861Z,1012.35
2017-05-31T02:37:13.848Z,1012.36
2017-05-31T02:38:13.834Z,1012.38
2017-05-31T02:39:13.819Z,1012.36
2017-05-31T02:40:13.806Z,1012.38
2017-05-31T02:41:13.784Z,1012.38
2017-05-31T02:42:13.775Z,1012.36
2017-05-31T02:43:13.760Z,1012.36
2017-05-31T02:44:13.744Z,1012.34
2017-05-31T02:45:13.724Z,1012.34
2017-05-31T02:46:13.706Z,1012.38
2017-05-31T02:47:13.694Z,1012.35
2017-05-31T02:48:13.678Z,1012.34
2017-05-31T02:49:13.657Z,1012.35
2017-05-31T02:50:13.646Z,1012.35
2017-05-31T02:51:13.633Z,1012.37
2017-05-31T02:52:13.621Z,1012.31
2017-05-31T02:53:13.599Z,1012.32
2017-05-31T02:54:13.579Z,1012.31
2017-05-31T02:55:13.563Z,1012.33
2017-05-31T02:56:13.555Z,1012.31
2017-05-31T02:57:13.536Z,1012.32
2017-05-31T02:58:13.523Z,1012.34
2017-05-31T02:59:13.512Z,1012.37
2017-05-31T03:00:13.488Z,1012.32
2017-05-31T03:01:13.474Z,1012.36
2017-05-31T03:02:13.458Z,1012.36
2017-05-31T03:03:13.442Z,1012.33
2017-05-31T03:04:13.426Z,1012.4
2017-05-31T03:05:13.412Z,1012.35
2017-05-31T03:06:13.402Z,1012.41
2017-05-31T03:07:13.381Z,1012.38
2017-05-31T03:08:13.362Z,1012.42
2017-05-31T03:09:13.349Z,1012.41
2017-05-31T03:10:13.333Z,1012.46
2017-05-31T03:11:13.320Z,1012.4
2017-05-31T03:12:13.302Z,1012.42
2017-05-31T03:13:13.286Z,1012.39
2017-05-31T03:14:13.271Z,1012.42
2017-05-31T03:15:13.260Z,1012.44
2017-05-31T03:16:13.239Z,1012.45
2017-05-31T03:17:13.219Z,1012.45
2017-05-31T03:18:13.211Z,1012.47
2017-05-31T03:19:13.189Z,1012.48
2017-05-31T03:20:13.175Z,1012.43
2017-05-31T03:21:13.171Z,1012.45
2017-05-31T03:22:13.148Z,1012.48
2017-05-31T03:23:13.125Z,1012.46
2017-05-31T03:24:13.120Z,1012.48
2017-05-31T03:25:13.093Z,1012.44
2017-05-31T03:26:13.079Z,1012.46
2017-05-31T03:27:13.062Z,1012.48
2017-05-31T03:28:13.051Z,1012.47
2017-05-31T03:29:13.033Z,1012.44
2017-05-31T03:30:13.021Z,1012.46
2017-05-31T03:31:13.000Z,1012.47
2017-05-31T03:32:12.983Z,1012.46
2017-05-31T03:33:12.968Z,1012.46
2017-05-31T03:34:12.953Z,1012.44
2017-05-31T03:35:12.937Z,1012.43
2017-05-31T03:36:12.920Z,1012.47
2017-05-31T03:37:12.906Z,1012.45
2017-05-31T03:38:12.891Z,1012.47
2017-05-31T03:39:12.874Z,1012.45
2017-05-31T03:40:12.859Z,1012.47
2017-05-31T03:41:12.843Z,1012.49
2017-05-31T03:42:12.827Z,1012.51
2017-05-31T03:43:12.814Z,1012.5
2017-05-31T03:44:12.797Z,1012.53
2017-05-31T03:45:12.779Z,1012.52
2017-05-31T03:46:12.765Z,1012.53
2017-05-31T03:47:12.752Z,1012.52
2017-05-31T03:48:12.732Z,1012.55
2017-05-31T03:49:12.723Z,1012.56
2017-05-31T03:50:12.705Z,1012.56
2017-05-31T03:51:12.686Z,1012.56
2017-05-31T03:52:12.671Z,1012.6
2017-05-31T03:53:12.655Z,1012.66
2017-05-31T03:54:12.648Z,1012.67
2017-05-31T03:55:12.626Z,1012.66
2017-05-31T03:56:12.610Z,1012.69
2017-05-31T03:57:12.593Z,1012.69
2017-05-31T03:58:12.574Z,1012.7
2017-05-31T03:59:12.562Z,1012.75
2017-05-31T04:00:12.547Z,1012.77
2017-05-31T04:01:12.529Z,1012.79
2017-05-31T04:02:12.517Z,1012.84
2017-05-31T04:03:12.500Z,1012.85
2017-05-31T04:04:12.484Z,1012.83
2017-05-31T04:05:12.468Z,1012.87
2017-05-31T04:06:12.451Z,1012.85
2017-05-31T04:07:12.435Z,1012.88
2017-05-31T04:08:12.418Z,1012.9
2017-05-31T04:09:12.406Z,1012.9
2017-05-31T04:10:12.390Z,1012.9
2017-05-31T04:11:12.375Z,1012.89
2017-05-31T04:12:12.360Z,1012.91
2017-05-31T04:13:12.342Z,1012.94
2017-05-31T04:14:12.326Z,1012.94
2017-05-31T04:15:12.311Z,1012.91
2017-05-31T04:16:12.299Z,1012.92
2017-05-31T04:17:12.280Z,1012.94
2017-05-31T04:18:12.263Z,1012.94
2017-05-31T04:19:12.248Z,1012.93
2017-05-31T04:20:12.229Z,1012.96
2017-05-31T04:21:12.220Z,1012.95
2017-05-31T04:22:12.202Z,1012.99
2017-05-31T04:23:12.191Z,1013.01
2017-05-31T04:24:12.170Z,1013
2017-05-31T04:25:12.150Z,1013.02
2017-05-31T04:26:12.140Z,1013.04
2017-05-31T04:27:12.173Z,1013.03
2017-05-31T04:28:12.108Z,1013.07
2017-05-31T04:29:12.090Z,1013.04
2017-05-31T04:30:12.075Z,1013.08
2017-05-31T04:31:12.058Z,1013.11
2017-05-31T04:32:12.040Z,1013.1
2017-05-31T04:33:12.029Z,1013.07
2017-05-31T04:34:12.010Z,1013.14
2017-05-31T04:35:11.998Z,1013.1
2017-05-31T04:36:11.977Z,1013.14
2017-05-31T04:37:11.968Z,1013.13
2017-05-31T04:38:11.951Z,1013.15
2017-05-31T04:39:11.932Z,1013.15
2017-05-31T04:40:11.920Z,1013.17
2017-05-31T04:41:11.900Z,1013.16
2017-05-31T04:42:11.892Z,1013.15
2017-05-31T04:43:11.868Z,1013.16
2017-05-31T04:44:11.854Z,1013.18
2017-05-31T04:45:11.839Z,1013.22
2017-05-31T04:46:11.820Z,1013.14
2017-05-31T04:47:11.811Z,1013.21
2017-05-31T04:48:11.789Z,1013.24
2017-05-31T04:49:11.776Z,1013.24
2017-05-31T04:50:11.760Z,1013.23
2017-05-31T04:51:11.752Z,1013.28
2017-05-31T04:52:11.729Z,1013.29
2017-05-31T04:53:11.721Z,1013.29
2017-05-31T04:54:11.700Z,1013.28
2017-05-31T04:55:11.691Z,1013.28
2017-05-31T04:56:11.671Z,1013.3
2017-05-31T04:57:11.650Z,1013.29
2017-05-31T04:58:11.634Z,1013.34
2017-05-31T04:59:11.619Z,1013.29
2017-05-31T05:00:11.612Z,1013.32
2017-05-31T05:01:11.591Z,1013.26
2017-05-31T05:02:11.579Z,1013.27
2017-05-31T05:03:11.559Z,1013.28
2017-05-31T05:04:11.546Z,1013.25
2017-05-31T05:05:11.536Z,1013.24
2017-05-31T05:06:11.511Z,1013.25
2017-05-31T05:07:11.492Z,1013.3
2017-05-31T05:08:11.482Z,1013.28
2017-05-31T05:09:11.467Z,1013.34
2017-05-31T05:10:11.450Z,1013.37
2017-05-31T05:11:11.437Z,1013.31
2017-05-31T05:12:11.421Z,1013.34
2017-05-31T05:13:11.407Z,1013.32
2017-05-31T05:14:11.389Z,1013.32
2017-05-31T05:15:11.369Z,1013.29
2017-05-31T05:16:11.360Z,1013.3
2017-05-31T05:17:11.338Z,1013.32
2017-05-31T05:18:11.330Z,1013.36
2017-05-31T05:19:11.310Z,1013.37
2017-05-31T05:20:11.301Z,1013.39
2017-05-31T05:21:11.278Z,1013.36
2017-05-31T05:22:11.267Z,1013.35
2017-05-31T05:23:11.253Z,1013.37
2017-05-31T05:24:11.235Z,1013.37
2017-05-31T05:25:11.220Z,1013.41
2017-05-31T05:26:11.207Z,1013.41
2017-05-31T05:27:11.185Z,1013.4
2017-05-31T05:28:11.173Z,1013.36
2017-05-31T05:29:11.162Z,1013.39
2017-05-31T05:30:11.144Z,1013.39
2017-05-31T05:31:11.126Z,1013.4
2017-05-31T05:32:11.109Z,1013.42
2017-05-31T05:33:11.098Z,1013.41
2017-05-31T05:34:11.082Z,1013.38
2017-05-31T05:35:11.069Z,1013.42
2017-05-31T05:36:11.049Z,1013.45
2017-05-31T05:37:11.037Z,1013.47
2017-05-31T05:38:11.030Z,1013.48
2017-05-31T05:39:11.011Z,1013.45
2017-05-31T05:40:10.992Z,1013.46
2017-05-31T05:41:10.979Z,1013.49
2017-05-31T05:42:10.968Z,1013.52
2017-05-31T05:43:10.951Z,1013.51
2017-05-31T05:44:10.935Z,1013.54
2017-05-31T05:45:10.916Z,1013.56
2017-05-31T05:46:10.909Z,1013.56
2017-05-31T05:47:10.884Z,1013.56
2017-05-31T05:48:10.876Z,1013.57
2017-05-31T05:49:10.862Z,1013.6
2017-05-31T05:50:10.850Z,1013.6
2017-05-31T05:51:10.831Z,1013.63
2017-05-31T05:52:10.822Z,1013.62
2017-05-31T05:53:10.799Z,1013.69
2017-05-31T05:54:10.800Z,1013.76
2017-05-31T05:55:10.773Z,1013.75
2017-05-31T05:56:10.760Z,1013.77
2017-05-31T05:57:10.751Z,1013.75
2017-05-31T05:58:10.730Z,1013.79
2017-05-31T05:59:10.720Z,1013.8
2017-05-31T06:00:10.703Z,1013.81
2017-05-31T06:01:10.689Z,1013.85
2017-05-31T06:02:10.671Z,1013.84
2017-05-31T06:03:10.662Z,1013.82
2017-05-31T06:04:10.642Z,1013.84
2017-05-31T06:05:10.632Z,1013.84
2017-05-31T06:06:10.611Z,1013.9
2017-05-31T06:07:10.597Z,1013.91
2017-05-31T06:08:10.599Z,1013.87
2017-05-31T06:09:10.572Z,1013.92
2017-05-31T06:10:10.560Z,1013.94
2017-05-31T06:11:10.540Z,1013.95
2017-05-31T06:12:10.529Z,1014.03
2017-05-31T06:13:10.521Z,1014
2017-05-31T06:14:10.501Z,1013.99
2017-05-31T06:15:10.487Z,1014.02
2017-05-31T06:16:10.480Z,1014.06
2017-05-31T06:17:10.455Z,1014.04
2017-05-31T06:18:10.441Z,1014.04
2017-05-31T06:19:10.430Z,1014.08
2017-05-31T06:20:10.413Z,1014.08
2017-05-31T06:21:10.403Z,1013.99
2017-05-31T06:22:10.391Z,1014.07
2017-05-31T06:23:10.372Z,1014.12
2017-05-31T06:24:10.363Z,1014.12
2017-05-31T06:25:10.351Z,1014.09
2017-05-31T06:26:10.335Z,1014.11
2017-05-31T06:27:10.317Z,1014.11
2017-05-31T06:28:10.305Z,1014.1
2017-05-31T06:29:10.291Z,1014.12
2017-05-31T06:30:10.282Z,1014.12
2017-05-31T06:31:10.261Z,1014.16
2017-05-31T06:32:10.249Z,1014.19
2017-05-31T06:33:10.236Z,1014.18
2017-05-31T06:34:10.222Z,1014.15
2017-05-31T06:35:10.213Z,1014.19
2017-05-31T06:36:10.193Z,1014.19
2017-05-31T06:37:10.182Z,1014.17
2017-05-31T06:38:10.171Z,1014.2
2017-05-31T06:39:10.152Z,1014.26
2017-05-31T06:40:10.140Z,1014.28
2017-05-31T06:41:10.129Z,1014.32
2017-05-31T06:42:10.109Z,1014.28
2017-05-31T06:43:10.104Z,1014.28
2017-05-31T06:44:10.090Z,1014.28
2017-05-31T06:45:10.076Z,1014.29
2017-05-31T06:46:10.059Z,1014.26
2017-05-31T06:47:10.042Z,1014.29
2017-05-31T06:48:10.035Z,1014.32
2017-05-31T06:49:10.017Z,1014.4
2017-05-31T06:50:10.005Z,1014.41
2017-05-31T06:51:09.994Z,1014.38
2017-05-31T06:52:09.979Z,1014.42
2017-05-31T06:53:09.962Z,1014.37
2017-05-31T06:54:09.951Z,1014.4
2017-05-31T06:55:09.936Z,1014.4
2017-05-31T06:56:09.926Z,1014.4
2017-05-31T06:57:09.907Z,1014.46
2017-05-31T06:58:09.903Z,1014.44
2017-05-31T06:59:09.882Z,1014.54
2017-05-31T07:00:09.873Z,1014.5
2017-05-31T07:01:09.855Z,1014.51
2017-05-31T07:02:09.853Z,1014.53
2017-05-31T07:03:09.830Z,1014.51
2017-05-31T07:04:09.823Z,1014.5
2017-05-31T07:05:09.804Z,1014.55
2017-05-31T07:06:09.793Z,1014.57
2017-05-31T07:07:09.785Z,1014.54
2017-05-31T07:08:09.767Z,1014.58
2017-05-31T07:09:09.752Z,1014.61
2017-05-31T07:10:09.743Z,1014.62
2017-05-31T07:11:09.734Z,1014.63
2017-05-31T07:12:09.716Z,1014.55
2017-05-31T07:13:09.708Z,1014.52
2017-05-31T07:14:09.694Z,1014.56
2017-05-31T07:15:09.685Z,1014.59
2017-05-31T07:16:09.668Z,1014.59
2017-05-31T07:17:09.653Z,1014.56
2017-05-31T07:18:09.644Z,1014.64
2017-05-31T07:19:09.630Z,1014.66
2017-05-31T07:20:09.625Z,1014.63
2017-05-31T07:21:09.603Z,1014.62
2017-05-31T07:22:09.595Z,1014.63
2017-05-31T07:23:09.579Z,1014.62
2017-05-31T07:24:09.565Z,1014.68
2017-05-31T07:25:09.568Z,1014.68
2017-05-31T07:26:09.542Z,1014.71
2017-05-31T07:27:09.533Z,1014.69
2017-05-31T07:28:09.520Z,1014.68
2017-05-31T07:29:09.519Z,1014.71
2017-05-31T07:30:09.491Z,1014.69
2017-05-31T07:31:09.480Z,1014.7
2017-05-31T07:32:09.474Z,1014.71
2017-05-31T07:33:09.462Z,1014.72
2017-05-31T07:34:09.447Z,1014.74
2017-05-31T07:35:09.513Z,1014.76
2017-05-31T07:36:09.423Z,1014.75
2017-05-31T07:37:09.412Z,1014.72
2017-05-31T07:38:09.400Z,1014.74
2017-05-31T07:39:09.390Z,1014.71
2017-05-31T07:40:09.374Z,1014.78
2017-05-31T07:41:09.387Z,1014.76
2017-05-31T07:42:09.351Z,1014.78
2017-05-31T07:43:09.341Z,1014.82
2017-05-31T07:44:09.331Z,1014.8
2017-05-31T07:45:09.411Z,1014.83
2017-05-31T07:46:09.302Z,1014.82
2017-05-31T07:47:09.304Z,1014.82
2017-05-31T07:48:09.284Z,1014.79
2017-05-31T07:49:09.267Z,1014.79
2017-05-31T07:50:09.265Z,1014.83
2017-05-31T07:51:09.249Z,1014.84
2017-05-31T07:52:09.244Z,1014.84
2017-05-31T07:53:09.221Z,1014.85
2017-05-31T07:54:09.210Z,1014.89
2017-05-31T07:55:09.202Z,1014.83
2017-05-31T07:56:09.192Z,1014.85
2017-05-31T07:57:09.173Z,1014.85
2017-05-31T07:58:09.173Z,1014.86
2017-05-31T07:59:09.152Z,1014.91
2017-05-31T08:00:09.144Z,1014.87
2017-05-31T08:01:09.136Z,1014.84
2017-05-31T08:02:09.121Z,1014.85
2017-05-31T08:03:09.115Z,1014.87
2017-05-31T08:04:09.103Z,1014.93
2017-05-31T08:05:09.091Z,1014.92
2017-05-31T08:06:09.079Z,1014.92
2017-05-31T08:07:09.062Z,1014.93
2017-05-31T08:08:09.054Z,1014.96
2017-05-31T08:09:09.043Z,1014.93
2017-05-31T08:10:09.032Z,1015.02
2017-05-31T08:11:09.020Z,1015.02
2017-05-31T08:12:09.010Z,1014.98
2017-05-31T08:13:09.003Z,1014.99
2017-05-31T08:14:08.988Z,1015.05
2017-05-31T08:15:08.979Z,1014.98
2017-05-31T08:16:08.965Z,1015.01
2017-05-31T08:17:08.957Z,1015
2017-05-31T08:18:08.951Z,1015.02
2017-05-31T08:19:08.936Z,1015.05
2017-05-31T08:20:08.926Z,1015.03
2017-05-31T08:21:08.912Z,1015.03
2017-05-31T08:22:08.913Z,1015.03
2017-05-31T08:23:08.891Z,1015.03
2017-05-31T08:24:08.885Z,1015.11
2017-05-31T08:25:08.872Z,1015.09
2017-05-31T08:26:08.862Z,1015.06
2017-05-31T08:27:08.852Z,1015.09
2017-05-31T08:28:08.841Z,1015.03
2017-05-31T08:29:08.831Z,1015.05
2017-05-31T08:30:08.822Z,1015.1
2017-05-31T08:31:08.834Z,1015.08
2017-05-31T08:32:08.807Z,1015.08
2017-05-31T08:33:08.793Z,1015.09
2017-05-31T08:34:08.781Z,1015.04
2017-05-31T08:35:08.769Z,1015.09
2017-05-31T08:36:08.765Z,1015.13
2017-05-31T08:37:08.753Z,1015.09
2017-05-31T08:38:08.752Z,1015.13
2017-05-31T08:39:08.733Z,1015.09
2017-05-31T08:40:08.718Z,1015.09
2017-05-31T08:41:08.734Z,1015.08
2017-05-31T08:42:08.713Z,1015.06
2017-05-31T08:43:08.702Z,1015.1
2017-05-31T08:44:08.683Z,1015.07
2017-05-31T08:45:08.678Z,1015.09
2017-05-31T08:46:08.654Z,1015.13
2017-05-31T08:47:08.645Z,1015.08
2017-05-31T08:48:08.641Z,1015.12
2017-05-31T08:49:08.633Z,1015.09
2017-05-31T08:50:08.614Z,1015.13
2017-05-31T08:51:08.602Z,1015.09
2017-05-31T08:52:08.600Z,1015.37
2017-05-31T08:53:08.582Z,1015.39
2017-05-31T08:54:08.571Z,1015.38
2017-05-31T08:55:08.573Z,1015.39
2017-05-31T08:56:08.563Z,1015.4
2017-05-31T08:57:08.609Z,1015.43
2017-05-31T08:58:08.542Z,1015.41
2017-05-31T08:59:08.527Z,1015.14
2017-05-31T09:00:08.514Z,1015.09
2017-05-31T09:01:08.512Z,1015.1
2017-05-31T09:02:08.505Z,1015.15
2017-05-31T09:03:08.491Z,1015.13
2017-05-31T09:04:08.480Z,1015.1
2017-05-31T09:05:08.472Z,1015.15
2017-05-31T09:06:08.460Z,1015.12
2017-05-31T09:07:08.454Z,1015.13
2017-05-31T09:08:08.440Z,1015.12
2017-05-31T09:09:08.432Z,1015.34
2017-05-31T09:10:08.423Z,1015.3
2017-05-31T09:11:08.422Z,1015.18
2017-05-31T09:12:08.412Z,1015.16
2017-05-31T09:13:08.399Z,1015.18
2017-05-31T09:14:08.391Z,1015.17
2017-05-31T09:15:08.376Z,1015.12
2017-05-31T09:16:08.371Z,1015.17
2017-05-31T09:17:08.365Z,1015.17
2017-05-31T09:18:08.349Z,1015.18
2017-05-31T09:19:08.340Z,1015.15
2017-05-31T09:20:08.336Z,1015.18
2017-05-31T09:21:08.326Z,1015.18
2017-05-31T09:22:08.321Z,1015.19
2017-05-31T09:23:08.320Z,1015.15
2017-05-31T09:24:08.300Z,1015.17
2017-05-31T09:25:08.286Z,1015.15
2017-05-31T09:26:08.284Z,1015.16
2017-05-31T09:27:08.266Z,1015.19
2017-05-31T09:28:08.261Z,1015.28
2017-05-31T09:29:08.248Z,1015.14
2017-05-31T09:30:08.241Z,1015.13
2017-05-31T09:31:08.239Z,1015.22
2017-05-31T09:32:08.233Z,1015.21
2017-05-31T09:33:08.211Z,1015.19
2017-05-31T09:34:08.201Z,1015.2
2017-05-31T09:35:08.202Z,1015.18
2017-05-31T09:36:08.181Z,1015.24
2017-05-31T09:37:08.173Z,1015.2
2017-05-31T09:38:08.157Z,1015.2
2017-05-31T09:39:08.149Z,1015.31
2017-05-31T09:40:08.143Z,1015.3
2017-05-31T09:41:08.129Z,1015.34
2017-05-31T09:42:08.120Z,1015.36
2017-05-31T09:43:08.110Z,1015.34
2017-05-31T09:44:08.103Z,1015.3
2017-05-31T09:45:08.100Z,1015.22
2017-05-31T09:46:08.082Z,1015.26
2017-05-31T09:47:08.083Z,1015.24
2017-05-31T09:48:08.070Z,1015.35
2017-05-31T09:49:08.058Z,1015.38
2017-05-31T09:50:08.053Z,1015.3
2017-05-31T09:51:08.052Z,1015.31
2017-05-31T09:52:08.038Z,1015.29
2017-05-31T09:53:08.039Z,1015.25
2017-05-31T09:54:08.019Z,1015.29
2017-05-31T09:55:08.010Z,1015.3
2017-05-31T09:56:08.003Z,1015.3
2017-05-31T09:57:08.007Z,1015.28
2017-05-31T09:58:07.988Z,1015.28
2017-05-31T09:59:07.987Z,1015.29
2017-05-31T10:00:07.974Z,1015.27
2017-05-31T10:01:07.968Z,1015.2
2017-05-31T10:02:07.960Z,1015.22
2017-05-31T10:03:07.950Z,1015.28
2017-05-31T10:04:07.939Z,1015.26
2017-05-31T10:05:07.933Z,1015.27
2017-05-31T10:06:07.919Z,1015.18
2017-05-31T10:07:07.913Z,1015.2
2017-05-31T10:08:07.905Z,1015.27
2017-05-31T10:09:07.901Z,1015.25
2017-05-31T10:10:07.886Z,1015.32
2017-05-31T10:11:07.878Z,1015.29
2017-05-31T10:12:07.922Z,1015.29
2017-05-31T10:13:07.863Z,1015.23
2017-05-31T10:14:07.910Z,1015.22
2017-05-31T10:15:07.853Z,1015.24
2017-05-31T10:16:07.842Z,1015.2
2017-05-31T10:17:07.833Z,1015.24
2017-05-31T10:18:07.827Z,1015.25
2017-05-31T10:19:07.817Z,1015.22
2017-05-31T10:20:07.809Z,1015.23
2017-05-31T10:21:07.802Z,1015.22
2017-05-31T10:22:07.795Z,1015.16
2017-05-31T10:23:07.788Z,1015.22
2017-05-31T10:24:07.780Z,1015.3
2017-05-31T10:25:07.767Z,1015.22
2017-05-31T10:26:07.758Z,1015.26
2017-05-31T10:27:07.757Z,1015.21
2017-05-31T10:28:07.740Z,1015.27
2017-05-31T10:29:07.732Z,1015.25
2017-05-31T10:30:07.727Z,1015.2
2017-05-31T10:31:07.729Z,1015.18
2017-05-31T10:32:07.708Z,1015.25
2017-05-31T10:33:07.709Z,1015.26
2017-05-31T10:34:07.688Z,1015.28
2017-05-31T10:35:07.682Z,1015.24
2017-05-31T10:36:07.673Z,1015.3
2017-05-31T10:37:07.665Z,1015.37
2017-05-31T10:38:07.656Z,1015.25
2017-05-31T10:39:07.651Z,1015.31
2017-05-31T10:40:07.640Z,1015.28
2017-05-31T10:41:07.634Z,1015.3
2017-05-31T10:42:07.624Z,1015.36
2017-05-31T10:43:07.620Z,1015.31
2017-05-31T10:44:07.611Z,1015.27
2017-05-31T10:45:07.606Z,1015.32
2017-05-31T10:46:07.592Z,1015.27
2017-05-31T10:47:07.587Z,1015.24
2017-05-31T10:48:07.577Z,1015.25
2017-05-31T10:49:07.575Z,1015.19
2017-05-31T10:50:07.561Z,1015.22
2017-05-31T10:51:07.558Z,1015.26
2017-05-31T10:52:07.549Z,1015.3
2017-05-31T10:53:07.545Z,1015.24
2017-05-31T10:54:07.533Z,1015.24
2017-05-31T10:55:07.632Z,1015.21
2017-05-31T10:56:07.522Z,1015.24
2017-05-31T10:57:07.562Z,1015.27
2017-05-31T10:58:07.504Z,1015.26
2017-05-31T10:59:07.497Z,1015.32
2017-05-31T11:00:07.490Z,1015.27
2017-05-31T11:01:07.529Z,1015.3
2017-05-31T11:02:07.471Z,1015.32
2017-05-31T11:03:07.468Z,1015.35
2017-05-31T11:04:07.450Z,1015.31
2017-05-31T11:05:07.440Z,1015.33
2017-05-31T11:06:07.433Z,1015.33
2017-05-31T11:07:07.422Z,1015.27
2017-05-31T11:08:07.410Z,1015.29
2017-05-31T11:09:07.411Z,1015.28
2017-05-31T11:10:07.392Z,1015.27
2017-05-31T11:11:07.390Z,1015.25
2017-05-31T11:12:07.379Z,1015.3
2017-05-31T11:13:07.364Z,1015.29
2017-05-31T11:14:07.357Z,1015.3
2017-05-31T11:15:07.350Z,1015.24
2017-05-31T11:16:07.334Z,1015.19
2017-05-31T11:17:07.331Z,1015.2
2017-05-31T11:18:07.321Z,1015.22
2017-05-31T11:19:07.312Z,1015.23
2017-05-31T11:20:07.302Z,1015.25
2017-05-31T11:21:07.292Z,1015.21
2017-05-31T11:22:07.290Z,1015.27
2017-05-31T11:23:07.273Z,1015.21
2017-05-31T11:24:07.267Z,1015.19
2017-05-31T11:25:07.260Z,1015.23
2017-05-31T11:26:07.248Z,1015.24
2017-05-31T11:27:07.242Z,1015.2
2017-05-31T11:28:07.230Z,1015.21
2017-05-31T11:29:07.231Z,1015.24
2017-05-31T11:30:07.219Z,1015.22
2017-05-31T11:31:07.222Z,1015.2
2017-05-31T11:32:07.200Z,1015.2
2017-05-31T11:33:07.196Z,1015.18
2017-05-31T11:34:07.191Z,1015.2
2017-05-31T11:35:07.174Z,1015.19
2017-05-31T11:36:07.169Z,1015.16
2017-05-31T11:37:07.159Z,1015.14
2017-05-31T11:38:07.157Z,1015.14
2017-05-31T11:39:07.141Z,1015.15
2017-05-31T11:40:07.146Z,1015.11
2017-05-31T11:41:07.128Z,1015.08
2017-05-31T11:42:07.122Z,1015.08
2017-05-31T11:43:07.115Z,1015.09
2017-05-31T11:44:07.103Z,1015.07
2017-05-31T11:45:07.092Z,1015.09
2017-05-31T11:46:07.091Z,1015.01
2017-05-31T11:47:07.079Z,1014.97
2017-05-31T11:48:07.068Z,1014.97
2017-05-31T11:49:07.064Z,1015.04
2017-05-31T11:50:07.053Z,1015.03
2017-05-31T11:51:07.052Z,1014.99
2017-05-31T11:52:07.033Z,1015.03
2017-05-31T11:53:07.032Z,1014.99
2017-05-31T11:54:07.017Z,1015
2017-05-31T11:55:07.010Z,1014.96
2017-05-31T11:56:07.000Z,1014.99
2017-05-31T11:57:06.990Z,1014.95
2017-05-31T11:58:06.983Z,1015
2017-05-31T11:59:06.973Z,1014.97
2017-05-31T12:00:06.972Z,1014.93
2017-05-31T12:01:06.962Z,1014.89
2017-05-31T12:02:06.948Z,1014.97
2017-05-31T12:03:06.942Z,1015
2017-05-31T12:04:06.932Z,1015
2017-05-31T12:05:06.924Z,1015.01
2017-05-31T12:06:06.916Z,1014.98
2017-05-31T12:07:06.914Z,1014.92
2017-05-31T12:08:06.900Z,1014.9